sensor_id;sensor_type;location;lat;lon;timestamp;temperature;humidity
31499;DHT22;18115;52.486;13.386;2023-03-01T00:01:18;0.40;99.90
31499;DHT22;18115;52.486;13.386;2023-03-01T00:03:43;-0.60;99.90
31499;DHT22;18115;52.486;13.386;2023-03-01T00:06:09;-0.60;99.90
31499;DHT22;18115;52.486;13.386;2023-03-01T00:08:36;-0.60;99.90
31499;DHT22;18115;52.486;13.386;2023-03-01T00:13:40;-0.70;99.90
31499;DHT22;18115;52.486;13.386;2023-03-01T00:16:09;-0.70;99.90
31499;DHT22;18115;52.486;13.386;2023-03-01T00:18:35;-0.80;99.90
31499;DHT22;18115;52.486;13.386;2023-03-01T00:21:01;-0.80;99.90
31499;DHT22;18115;52.486;13.386;2023-03-01T00:23:27;-0.70;99.90
31499;DHT22;18115;52.486;13.386;2023-03-01T00:25:53;-0.80;99.90
31499;DHT22;18115;52.486;13.386;2023-03-01T00:28:19;-0.80;99.90
31499;DHT22;18115;52.486;13.386;2023-03-01T00:30:45;-0.30;99.90
31499;DHT22;18115;52.486;13.386;2023-03-01T00:33:11;-0.90;99.90
31499;DHT22;18115;52.486;13.386;2023-03-01T00:35:36;-0.90;99.90
31499;DHT22;18115;52.486;13.386;2023-03-01T00:38:02;-0.90;99.90
31499;DHT22;18115;52.486;13.386;2023-03-01T00:40:31;-0.30;99.90
31499;DHT22;18115;52.486;13.386;2023-03-01T00:42:57;-1.00;99.90
31499;DHT22;18115;52.486;13.386;2023-03-01T00:45:23;-1.10;99.90
31499;DHT22;18115;52.486;13.386;2023-03-01T00:47:50;-1.20;99.90
31499;DHT22;18115;52.486;13.386;2023-03-01T00:50:16;-1.10;99.90
31499;DHT22;18115;52.486;13.386;2023-03-01T00:52:43;-1.10;99.90
31499;DHT22;18115;52.486;13.386;2023-03-01T00:55:09;1.00;99.90
31499;DHT22;18115;52.486;13.386;2023-03-01T00:57:35;-1.10;99.90
31499;DHT22;18115;52.486;13.386;2023-03-01T01:00:02;-1.10;99.90
31499;DHT22;18115;52.486;13.386;2023-03-01T01:02:29;-1.10;99.90
31499;DHT22;18115;52.486;13.386;2023-03-01T01:04:55;-1.20;99.90
31499;DHT22;18115;52.486;13.386;2023-03-01T01:07:20;-1.70;99.90
31499;DHT22;18115;52.486;13.386;2023-03-01T01:09:46;-1.20;99.90
31499;DHT22;18115;52.486;13.386;2023-03-01T01:12:12;-1.30;99.90
31499;DHT22;18115;52.486;13.386;2023-03-01T01:14:38;-0.50;99.90
31499;DHT22;18115;52.486;13.386;2023-03-01T01:17:04;-1.10;99.90
31499;DHT22;18115;52.486;13.386;2023-03-01T01:19:30;-1.00;99.90
31499;DHT22;18115;52.486;13.386;2023-03-01T01:21:55;-1.20;99.90
31499;DHT22;18115;52.486;13.386;2023-03-01T01:24:21;-1.20;99.90
31499;DHT22;18115;52.486;13.386;2023-03-01T01:26:47;-1.30;99.90
31499;DHT22;18115;52.486;13.386;2023-03-01T01:29:13;-1.50;99.90
31499;DHT22;18115;52.486;13.386;2023-03-01T01:31:40;-1.30;99.90
31499;DHT22;18115;52.486;13.386;2023-03-01T01:34:08;-1.30;99.90
31499;DHT22;18115;52.486;13.386;2023-03-01T01:36:34;-1.30;99.90
31499;DHT22;18115;52.486;13.386;2023-03-01T01:39:00;-0.50;99.90
31499;DHT22;18115;52.486;13.386;2023-03-01T01:41:27;-1.30;99.90
31499;DHT22;18115;52.486;13.386;2023-03-01T01:47:25;-1.40;99.90
31499;DHT22;18115;52.486;13.386;2023-03-01T01:52:34;-1.40;99.90
31499;DHT22;18115;52.486;13.386;2023-03-01T01:55:05;-1.10;99.90
31499;DHT22;18115;52.486;13.386;2023-03-01T01:57:52;-1.40;99.90
31499;DHT22;18115;52.486;13.386;2023-03-01T02:00:26;-1.40;99.90
31499;DHT22;18115;52.486;13.386;2023-03-01T02:02:56;-1.40;99.90
31499;DHT22;18115;52.486;13.386;2023-03-01T02:05:44;-1.40;99.90
31499;DHT22;18115;52.486;13.386;2023-03-01T02:08:13;-1.30;99.90
31499;DHT22;18115;52.486;13.386;2023-03-01T02:10:40;-1.40;99.90
31499;DHT22;18115;52.486;13.386;2023-03-01T02:13:06;-1.20;99.90
31499;DHT22;18115;52.486;13.386;2023-03-01T02:15:37;-0.70;99.90
31499;DHT22;18115;52.486;13.386;2023-03-01T02:18:04;-1.30;99.90
31499;DHT22;18115;52.486;13.386;2023-03-01T02:22:56;-1.20;99.90
31499;DHT22;18115;52.486;13.386;2023-03-01T02:25:29;-1.30;99.90
31499;DHT22;18115;52.486;13.386;2023-03-01T02:30:25;-1.30;99.90
31499;DHT22;18115;52.486;13.386;2023-03-01T02:32:52;-1.30;99.90
31499;DHT22;18115;52.486;13.386;2023-03-01T02:35:19;-1.10;99.90
31499;DHT22;18115;52.486;13.386;2023-03-01T02:37:45;-1.10;99.90
31499;DHT22;18115;52.486;13.386;2023-03-01T02:40:16;-1.30;99.90
31499;DHT22;18115;52.486;13.386;2023-03-01T02:42:57;-1.10;99.90
31499;DHT22;18115;52.486;13.386;2023-03-01T02:45:23;-1.40;99.90
31499;DHT22;18115;52.486;13.386;2023-03-01T02:53:03;-1.40;99.90
31499;DHT22;18115;52.486;13.386;2023-03-01T02:55:32;-1.30;99.90
31499;DHT22;18115;52.486;13.386;2023-03-01T02:57:57;-1.60;99.90
31499;DHT22;18115;52.486;13.386;2023-03-01T03:00:32;-1.60;99.90
31499;DHT22;18115;52.486;13.386;2023-03-01T03:05:29;-1.60;99.90
31499;DHT22;18115;52.486;13.386;2023-03-01T03:07:56;-1.40;99.90
31499;DHT22;18115;52.486;13.386;2023-03-01T03:10:28;-1.40;99.90
31499;DHT22;18115;52.486;13.386;2023-03-01T03:12:59;-1.40;99.90
31499;DHT22;18115;52.486;13.386;2023-03-01T03:15:26;-1.40;99.90
31499;DHT22;18115;52.486;13.386;2023-03-01T03:17:53;-1.40;99.90
31499;DHT22;18115;52.486;13.386;2023-03-01T03:20:21;-1.40;99.90
31499;DHT22;18115;52.486;13.386;2023-03-01T03:22:50;-1.40;99.90
31499;DHT22;18115;52.486;13.386;2023-03-01T03:25:17;-1.40;99.90
31499;DHT22;18115;52.486;13.386;2023-03-01T03:27:44;-1.40;99.90
31499;DHT22;18115;52.486;13.386;2023-03-01T03:30:13;-1.40;99.90
31499;DHT22;18115;52.486;13.386;2023-03-01T03:32:40;-1.40;99.90
31499;DHT22;18115;52.486;13.386;2023-03-01T03:35:08;-1.40;99.90
31499;DHT22;18115;52.486;13.386;2023-03-01T03:37:38;-1.40;99.90
31499;DHT22;18115;52.486;13.386;2023-03-01T03:45:18;-1.40;99.90
31499;DHT22;18115;52.486;13.386;2023-03-01T03:50:12;-1.40;99.90
31499;DHT22;18115;52.486;13.386;2023-03-01T03:55:05;-1.40;99.90
31499;DHT22;18115;52.486;13.386;2023-03-01T03:57:37;-1.30;99.90
31499;DHT22;18115;52.486;13.386;2023-03-01T04:00:03;-0.90;99.90
31499;DHT22;18115;52.486;13.386;2023-03-01T04:02:39;-1.60;99.90
31499;DHT22;18115;52.486;13.386;2023-03-01T04:05:06;-1.40;99.90
31499;DHT22;18115;52.486;13.386;2023-03-01T04:22:09;-1.60;99.90
31499;DHT22;18115;52.486;13.386;2023-03-01T04:24:36;-1.50;99.90
31499;DHT22;18115;52.486;13.386;2023-03-01T04:36:46;-1.60;99.90
31499;DHT22;18115;52.486;13.386;2023-03-01T04:39:11;-1.60;99.90
31499;DHT22;18115;52.486;13.386;2023-03-01T04:41:38;-0.80;99.90
31499;DHT22;18115;52.486;13.386;2023-03-01T04:44:05;-2.20;99.90
31499;DHT22;18115;52.486;13.386;2023-03-01T04:46:31;-1.60;99.90
31499;DHT22;18115;52.486;13.386;2023-03-01T04:48:56;-1.80;99.90
31499;DHT22;18115;52.486;13.386;2023-03-01T04:51:22;-1.60;99.90
31499;DHT22;18115;52.486;13.386;2023-03-01T04:53:48;-1.70;99.90
31499;DHT22;18115;52.486;13.386;2023-03-01T04:56:13;-1.70;99.90
31499;DHT22;18115;52.486;13.386;2023-03-01T04:58:39;-1.70;99.90
31499;DHT22;18115;52.486;13.386;2023-03-01T05:01:13;-1.70;99.90
31499;DHT22;18115;52.486;13.386;2023-03-01T05:03:52;-1.60;99.90
31499;DHT22;18115;52.486;13.386;2023-03-01T05:06:19;-1.70;99.90
31499;DHT22;18115;52.486;13.386;2023-03-01T05:08:45;-1.80;99.90
31499;DHT22;18115;52.486;13.386;2023-03-01T05:13:38;-1.70;99.90
31499;DHT22;18115;52.486;13.386;2023-03-01T05:16:05;-2.40;99.90
31499;DHT22;18115;52.486;13.386;2023-03-01T05:18:33;-1.80;99.90
31499;DHT22;18115;52.486;13.386;2023-03-01T05:21:07;-1.70;99.90
31499;DHT22;18115;52.486;13.386;2023-03-01T05:26:01;0.70;99.90
31499;DHT22;18115;52.486;13.386;2023-03-01T05:28:27;-1.70;99.90
31499;DHT22;18115;52.486;13.386;2023-03-01T05:30:54;-2.20;99.90
31499;DHT22;18115;52.486;13.386;2023-03-01T05:33:20;-1.70;99.90
31499;DHT22;18115;52.486;13.386;2023-03-01T05:35:47;-1.80;99.90
31499;DHT22;18115;52.486;13.386;2023-03-01T05:40:44;-1.70;99.90
31499;DHT22;18115;52.486;13.386;2023-03-01T05:43:11;-1.70;99.90
31499;DHT22;18115;52.486;13.386;2023-03-01T05:45:38;-1.70;99.90
31499;DHT22;18115;52.486;13.386;2023-03-01T05:48:06;-1.70;99.90
31499;DHT22;18115;52.486;13.386;2023-03-01T05:50:42;-1.80;99.90
31499;DHT22;18115;52.486;13.386;2023-03-01T05:53:17;-1.90;99.90
31499;DHT22;18115;52.486;13.386;2023-03-01T05:55:43;-1.70;99.90
31499;DHT22;18115;52.486;13.386;2023-03-01T05:58:15;-1.80;99.90
31499;DHT22;18115;52.486;13.386;2023-03-01T06:00:42;-1.70;99.90
31499;DHT22;18115;52.486;13.386;2023-03-01T06:03:10;-1.60;99.90
31499;DHT22;18115;52.486;13.386;2023-03-01T06:05:36;-1.60;99.90
31499;DHT22;18115;52.486;13.386;2023-03-01T06:08:02;-1.70;99.90
31499;DHT22;18115;52.486;13.386;2023-03-01T06:10:29;-1.50;99.90
31499;DHT22;18115;52.486;13.386;2023-03-01T06:12:55;-0.90;99.90
31499;DHT22;18115;52.486;13.386;2023-03-01T06:17:48;-1.50;99.90
31499;DHT22;18115;52.486;13.386;2023-03-01T06:20:16;-1.60;99.90
31499;DHT22;18115;52.486;13.386;2023-03-01T06:22:43;-1.70;99.90
31499;DHT22;18115;52.486;13.386;2023-03-01T06:25:09;-1.40;99.90
31499;DHT22;18115;52.486;13.386;2023-03-01T06:44:39;-1.30;99.90
31499;DHT22;18115;52.486;13.386;2023-03-01T06:49:30;-1.20;99.90
31499;DHT22;18115;52.486;13.386;2023-03-01T06:51:57;-1.20;99.90
31499;DHT22;18115;52.486;13.386;2023-03-01T06:54:23;-1.10;99.90
31499;DHT22;18115;52.486;13.386;2023-03-01T06:56:49;-1.20;99.90
31499;DHT22;18115;52.486;13.386;2023-03-01T06:59:15;-1.30;99.90
31499;DHT22;18115;52.486;13.386;2023-03-01T07:06:33;-1.00;99.90
31499;DHT22;18115;52.486;13.386;2023-03-01T07:13:51;-0.80;99.90
31499;DHT22;18115;52.486;13.386;2023-03-01T07:21:12;-0.70;99.90
31499;DHT22;18115;52.486;13.386;2023-03-01T21:29:13;2.40;99.90
31499;DHT22;18115;52.486;13.386;2023-03-01T21:31:39;2.50;99.90
31499;DHT22;18115;52.486;13.386;2023-03-01T21:34:05;2.40;99.90
31499;DHT22;18115;52.486;13.386;2023-03-01T21:36:31;2.30;99.90
31499;DHT22;18115;52.486;13.386;2023-03-01T21:38:58;2.40;99.90
31499;DHT22;18115;52.486;13.386;2023-03-01T21:41:28;2.30;99.90
31499;DHT22;18115;52.486;13.386;2023-03-01T21:43:55;2.30;99.90
31499;DHT22;18115;52.486;13.386;2023-03-01T21:46:23;2.20;99.90
31499;DHT22;18115;52.486;13.386;2023-03-01T21:48:51;2.20;99.90
31499;DHT22;18115;52.486;13.386;2023-03-01T21:51:18;3.10;99.90
31499;DHT22;18115;52.486;13.386;2023-03-01T21:53:45;2.20;99.90
31499;DHT22;18115;52.486;13.386;2023-03-01T21:56:19;2.20;99.90
31499;DHT22;18115;52.486;13.386;2023-03-01T21:58:45;2.10;99.90
31499;DHT22;18115;52.486;13.386;2023-03-01T22:01:13;2.10;99.90
31499;DHT22;18115;52.486;13.386;2023-03-01T22:03:39;2.10;99.90
31499;DHT22;18115;52.486;13.386;2023-03-01T22:06:16;2.00;99.90
31499;DHT22;18115;52.486;13.386;2023-03-01T22:08:52;2.00;99.90
31499;DHT22;18115;52.486;13.386;2023-03-01T22:11:20;2.40;99.90
31499;DHT22;18115;52.486;13.386;2023-03-01T22:13:47;2.60;99.90
31499;DHT22;18115;52.486;13.386;2023-03-01T22:16:14;2.00;99.90
31499;DHT22;18115;52.486;13.386;2023-03-01T22:18:40;1.90;99.90
31499;DHT22;18115;52.486;13.386;2023-03-01T22:21:06;3.10;99.90
31499;DHT22;18115;52.486;13.386;2023-03-01T22:23:34;2.00;99.90
31499;DHT22;18115;52.486;13.386;2023-03-01T22:26:01;2.00;99.90
31499;DHT22;18115;52.486;13.386;2023-03-01T22:28:28;1.90;99.90
31499;DHT22;18115;52.486;13.386;2023-03-01T22:30:53;2.00;99.90
31499;DHT22;18115;52.486;13.386;2023-03-01T22:33:19;1.70;99.90
31499;DHT22;18115;52.486;13.386;2023-03-01T22:35:45;1.90;99.90
31499;DHT22;18115;52.486;13.386;2023-03-01T22:38:11;1.90;99.90
31499;DHT22;18115;52.486;13.386;2023-03-01T22:43:03;2.00;99.90
31499;DHT22;18115;52.486;13.386;2023-03-01T22:45:29;1.90;99.90
31499;DHT22;18115;52.486;13.386;2023-03-01T22:47:57;2.00;99.90
31499;DHT22;18115;52.486;13.386;2023-03-01T22:50:25;3.60;99.90
31499;DHT22;18115;52.486;13.386;2023-03-01T22:52:51;1.90;99.90
31499;DHT22;18115;52.486;13.386;2023-03-01T22:55:17;1.90;99.90
31499;DHT22;18115;52.486;13.386;2023-03-01T22:57:42;1.80;99.90
31499;DHT22;18115;52.486;13.386;2023-03-01T23:00:09;2.40;99.90
31499;DHT22;18115;52.486;13.386;2023-03-01T23:02:38;1.70;99.90
31499;DHT22;18115;52.486;13.386;2023-03-01T23:05:06;1.70;99.90
31499;DHT22;18115;52.486;13.386;2023-03-01T23:07:32;1.60;99.90
31499;DHT22;18115;52.486;13.386;2023-03-01T23:09:58;1.60;99.90
31499;DHT22;18115;52.486;13.386;2023-03-01T23:12:27;1.70;99.90
31499;DHT22;18115;52.486;13.386;2023-03-01T23:14:52;1.40;99.90
31499;DHT22;18115;52.486;13.386;2023-03-01T23:17:18;1.90;99.90
31499;DHT22;18115;52.486;13.386;2023-03-01T23:19:44;1.50;99.90
31499;DHT22;18115;52.486;13.386;2023-03-01T23:22:10;1.40;99.90
31499;DHT22;18115;52.486;13.386;2023-03-01T23:24:35;1.20;99.90
31499;DHT22;18115;52.486;13.386;2023-03-01T23:27:02;1.50;99.90
31499;DHT22;18115;52.486;13.386;2023-03-01T23:29:28;1.30;99.90
31499;DHT22;18115;52.486;13.386;2023-03-01T23:31:55;1.40;99.90
31499;DHT22;18115;52.486;13.386;2023-03-01T23:36:51;1.10;99.90
31499;DHT22;18115;52.486;13.386;2023-03-01T23:44:15;1.10;99.90
31499;DHT22;18115;52.486;13.386;2023-03-01T23:49:10;1.00;99.90
31499;DHT22;18115;52.486;13.386;2023-03-01T23:51:39;1.00;99.90
